createdAt,value
2022-12-09T00:00:38.807Z,33.94
2022-12-09T01:03:06.361Z,29.75
2022-12-09T01:04:25.599Z,23.38
2022-12-09T01:22:55.779Z,24.67
2022-12-09T01:41:47.328Z,26.06
2022-12-09T01:50:25.327Z,22.81
2022-12-09T01:51:20.852Z,18.75
2022-12-09T01:52:26.414Z,19.50
2022-12-09T01:53:33.334Z,25.25
2022-12-09T01:54:43.108Z,20.88
2022-12-09T01:55:50.033Z,22.87
2022-12-09T01:56:55.512Z,22.37
2022-12-09T01:58:00.199Z,26.12
2022-12-09T01:59:14.751Z,23.50
2022-12-09T02:00:20.367Z,23.62
2022-12-09T02:01:24.711Z,23.25
2022-12-09T02:02:30.536Z,26.00
2022-12-09T02:03:35.245Z,24.56
2022-12-09T02:04:44.763Z,22.87
2022-12-09T02:05:51.264Z,21.25
2022-12-09T02:06:56.849Z,22.13
2022-12-09T02:08:01.367Z,26.44
2022-12-09T02:09:07.461Z,24.00
2022-12-09T02:10:15.247Z,21.50
2022-12-09T02:11:45.290Z,24.00
2022-12-09T02:12:53.933Z,22.25
2022-12-09T02:14:14.668Z,23.44
2022-12-09T02:15:26.137Z,24.19
2022-12-09T02:16:34.799Z,24.40
2022-12-09T02:17:51.480Z,24.94
2022-12-09T02:20:40.306Z,26.00
2022-12-09T02:21:47.842Z,29.13
2022-12-09T02:23:06.796Z,22.62
2022-12-09T02:24:20.106Z,18.19
2022-12-09T07:09:19.949Z,31.93
2022-12-09T07:10:29.051Z,32.19
2022-12-09T07:11:33.621Z,34.88
2022-12-09T07:12:41.397Z,33.44
2022-12-09T07:13:47.403Z,33.88
2022-12-09T07:14:51.615Z,37.40
2022-12-09T08:43:15.276Z,34.88
2022-12-09T08:44:21.019Z,38.25
2022-12-09T08:45:25.562Z,33.44
2022-12-09T08:46:31.537Z,34.53
2022-12-09T14:23:04.750Z,38.81
2022-12-09T14:24:14.406Z,41.44
2022-12-09T14:25:29.942Z,42.69
2022-12-09T14:26:44.818Z,40.81
2022-12-09T14:28:16.035Z,39.44
2022-12-09T14:29:48.282Z,43.50
2022-12-09T14:31:08.027Z,44.25
2022-12-09T14:32:23.052Z,46.20
2022-12-09T14:33:35.908Z,44.31
2022-12-09T14:34:43.186Z,49.69
2022-12-09T14:35:50.079Z,48.63
2022-12-09T14:39:53.741Z,49.56
2022-12-09T14:41:17.738Z,43.27
2022-12-09T14:42:27.535Z,60.69
2022-12-09T14:43:48.611Z,47.38
2022-12-09T14:45:12.411Z,58.07
2022-12-09T14:46:24.015Z,50.56
2022-12-09T14:47:31.359Z,41.44
2022-12-09T14:48:40.287Z,46.93
2022-12-09T15:48:01.358Z,45.25
2022-12-09T15:49:20.387Z,50.75
2022-12-09T15:52:00.099Z,49.69
2022-12-09T15:53:33.825Z,50.81
2022-12-09T15:54:43.197Z,50.75
2022-12-09T15:55:51.697Z,45.75
2022-12-09T15:57:05.176Z,46.00
2022-12-09T15:58:50.415Z,47.44
2022-12-09T15:59:42.954Z,46.73
2022-12-09T16:00:51.688Z,44.20
2022-12-09T16:02:01.412Z,38.19
2022-12-09T16:03:18.237Z,44.13
2022-12-09T16:04:25.437Z,42.50
2022-12-09T16:05:34.913Z,47.47
2022-12-09T16:06:38.126Z,45.63
2022-12-09T16:07:54.068Z,47.00
2022-12-09T16:09:05.163Z,46.93
2022-12-09T16:10:17.102Z,47.25
2022-12-09T16:12:39.123Z,57.47
2022-12-09T16:13:20.361Z,73.53
2022-12-09T16:14:25.424Z,67.19
2022-12-09T17:20:50.894Z,46.27
2022-12-09T17:23:42.232Z,50.27
2022-12-09T17:59:36.448Z,48.19
